sensor_id;sensor_type;location;lat;lon;timestamp;temperature;humidity
65038;DHT22;51605;47.040;15.294;2024-02-26T00:01:40;20.60;52.20
65038;DHT22;51605;47.040;15.294;2024-02-26T00:04:05;20.60;52.10
65038;DHT22;51605;47.040;15.294;2024-02-26T00:06:31;20.60;52.10
65038;DHT22;51605;47.040;15.294;2024-02-26T00:08:58;20.70;52.20
65038;DHT22;51605;47.040;15.294;2024-02-26T00:11:23;20.70;52.20
65038;DHT22;51605;47.040;15.294;2024-02-26T00:13:49;20.70;53.10
65038;DHT22;51605;47.040;15.294;2024-02-26T00:16:15;20.70;52.10
65038;DHT22;51605;47.040;15.294;2024-02-26T00:18:40;20.70;52.20
65038;DHT22;51605;47.040;15.294;2024-02-26T00:21:06;20.70;52.10
65038;DHT22;51605;47.040;15.294;2024-02-26T00:23:32;20.70;52.10
65038;DHT22;51605;47.040;15.294;2024-02-26T00:25:57;20.60;52.10
65038;DHT22;51605;47.040;15.294;2024-02-26T00:28:24;20.60;52.10
65038;DHT22;51605;47.040;15.294;2024-02-26T00:30:50;20.60;52.10
65038;DHT22;51605;47.040;15.294;2024-02-26T00:33:21;20.60;52.10
65038;DHT22;51605;47.040;15.294;2024-02-26T00:35:48;20.60;52.20
65038;DHT22;51605;47.040;15.294;2024-02-26T00:38:13;20.60;52.10
65038;DHT22;51605;47.040;15.294;2024-02-26T00:40:39;20.70;52.10
65038;DHT22;51605;47.040;15.294;2024-02-26T00:43:06;20.70;52.10
65038;DHT22;51605;47.040;15.294;2024-02-26T00:45:32;20.70;52.20
65038;DHT22;51605;47.040;15.294;2024-02-26T00:47:58;20.70;52.20
65038;DHT22;51605;47.040;15.294;2024-02-26T00:50:26;20.70;52.10
65038;DHT22;51605;47.040;15.294;2024-02-26T00:52:52;20.70;52.10
65038;DHT22;51605;47.040;15.294;2024-02-26T00:55:18;20.60;52.10
65038;DHT22;51605;47.040;15.294;2024-02-26T00:57:43;20.70;52.10
65038;DHT22;51605;47.040;15.294;2024-02-26T01:00:09;20.60;52.00
65038;DHT22;51605;47.040;15.294;2024-02-26T01:02:35;20.60;52.10
65038;DHT22;51605;47.040;15.294;2024-02-26T01:05:01;20.60;52.10
65038;DHT22;51605;47.040;15.294;2024-02-26T01:07:26;20.60;52.10
65038;DHT22;51605;47.040;15.294;2024-02-26T01:09:52;20.70;52.10
65038;DHT22;51605;47.040;15.294;2024-02-26T01:12:17;20.70;52.20
65038;DHT22;51605;47.040;15.294;2024-02-26T01:14:43;20.60;52.10
65038;DHT22;51605;47.040;15.294;2024-02-26T01:17:09;20.60;52.10
65038;DHT22;51605;47.040;15.294;2024-02-26T01:19:34;20.60;52.10
65038;DHT22;51605;47.040;15.294;2024-02-26T01:22:00;20.60;52.10
65038;DHT22;51605;47.040;15.294;2024-02-26T01:24:25;20.60;52.10
65038;DHT22;51605;47.040;15.294;2024-02-26T01:26:51;20.70;52.20
65038;DHT22;51605;47.040;15.294;2024-02-26T01:29:17;20.60;52.00
65038;DHT22;51605;47.040;15.294;2024-02-26T01:31:42;20.60;52.10
65038;DHT22;51605;47.040;15.294;2024-02-26T01:34:08;20.70;52.10
65038;DHT22;51605;47.040;15.294;2024-02-26T01:36:34;20.60;52.10
65038;DHT22;51605;47.040;15.294;2024-02-26T01:38:59;20.60;52.10
65038;DHT22;51605;47.040;15.294;2024-02-26T01:41:25;20.60;52.00
65038;DHT22;51605;47.040;15.294;2024-02-26T01:43:51;20.60;52.10
65038;DHT22;51605;47.040;15.294;2024-02-26T01:46:17;20.60;52.00
65038;DHT22;51605;47.040;15.294;2024-02-26T01:48:44;20.70;52.20
65038;DHT22;51605;47.040;15.294;2024-02-26T01:51:12;20.60;52.00
65038;DHT22;51605;47.040;15.294;2024-02-26T01:53:39;20.70;52.10
65038;DHT22;51605;47.040;15.294;2024-02-26T01:56:05;20.60;52.00
65038;DHT22;51605;47.040;15.294;2024-02-26T01:58:30;20.60;52.10
65038;DHT22;51605;47.040;15.294;2024-02-26T02:00:57;20.60;52.00
65038;DHT22;51605;47.040;15.294;2024-02-26T02:03:23;20.60;52.10
65038;DHT22;51605;47.040;15.294;2024-02-26T02:05:49;20.60;52.00
65038;DHT22;51605;47.040;15.294;2024-02-26T02:08:15;20.60;52.10
65038;DHT22;51605;47.040;15.294;2024-02-26T02:10:41;20.60;52.10
65038;DHT22;51605;47.040;15.294;2024-02-26T02:13:07;20.60;52.10
65038;DHT22;51605;47.040;15.294;2024-02-26T02:15:33;20.60;52.00
65038;DHT22;51605;47.040;15.294;2024-02-26T02:17:59;20.60;52.10
65038;DHT22;51605;47.040;15.294;2024-02-26T02:20:31;20.60;52.00
65038;DHT22;51605;47.040;15.294;2024-02-26T02:22:58;20.60;52.00
65038;DHT22;51605;47.040;15.294;2024-02-26T02:25:24;20.60;52.00
65038;DHT22;51605;47.040;15.294;2024-02-26T02:27:50;20.60;52.10
65038;DHT22;51605;47.040;15.294;2024-02-26T02:30:16;20.60;52.10
65038;DHT22;51605;47.040;15.294;2024-02-26T02:32:42;20.60;52.10
65038;DHT22;51605;47.040;15.294;2024-02-26T02:35:08;20.60;52.10
65038;DHT22;51605;47.040;15.294;2024-02-26T02:37:34;20.60;52.00
65038;DHT22;51605;47.040;15.294;2024-02-26T02:39:59;20.60;52.00
65038;DHT22;51605;47.040;15.294;2024-02-26T02:42:25;20.60;52.00
65038;DHT22;51605;47.040;15.294;2024-02-26T02:44:51;20.60;52.00
65038;DHT22;51605;47.040;15.294;2024-02-26T02:47:17;20.60;52.10
65038;DHT22;51605;47.040;15.294;2024-02-26T02:49:42;20.60;52.90
65038;DHT22;51605;47.040;15.294;2024-02-26T02:52:08;20.70;52.10
65038;DHT22;51605;47.040;15.294;2024-02-26T02:54:34;20.60;52.10
65038;DHT22;51605;47.040;15.294;2024-02-26T02:56:59;20.60;52.10
65038;DHT22;51605;47.040;15.294;2024-02-26T02:59:25;20.60;52.00
65038;DHT22;51605;47.040;15.294;2024-02-26T03:01:51;20.60;52.00
65038;DHT22;51605;47.040;15.294;2024-02-26T03:04:17;20.60;52.10
65038;DHT22;51605;47.040;15.294;2024-02-26T03:06:43;20.60;52.10
65038;DHT22;51605;47.040;15.294;2024-02-26T03:09:08;20.60;52.10
65038;DHT22;51605;47.040;15.294;2024-02-26T03:11:34;20.60;52.10
65038;DHT22;51605;47.040;15.294;2024-02-26T03:14:00;20.60;52.10
65038;DHT22;51605;47.040;15.294;2024-02-26T03:16:26;20.60;52.10
65038;DHT22;51605;47.040;15.294;2024-02-26T03:18:52;20.60;52.10
65038;DHT22;51605;47.040;15.294;2024-02-26T03:21:18;20.60;52.10
65038;DHT22;51605;47.040;15.294;2024-02-26T03:23:43;20.60;52.10
65038;DHT22;51605;47.040;15.294;2024-02-26T03:26:09;20.60;52.10
65038;DHT22;51605;47.040;15.294;2024-02-26T03:28:39;20.60;52.00
65038;DHT22;51605;47.040;15.294;2024-02-26T03:31:04;20.70;52.10
65038;DHT22;51605;47.040;15.294;2024-02-26T03:33:30;20.60;52.00
65038;DHT22;51605;47.040;15.294;2024-02-26T03:35:55;20.60;52.10
65038;DHT22;51605;47.040;15.294;2024-02-26T03:38:21;20.60;52.10
65038;DHT22;51605;47.040;15.294;2024-02-26T03:40:47;20.60;52.10
65038;DHT22;51605;47.040;15.294;2024-02-26T03:43:13;20.60;52.10
65038;DHT22;51605;47.040;15.294;2024-02-26T03:45:39;20.60;52.10
65038;DHT22;51605;47.040;15.294;2024-02-26T03:48:05;20.60;52.10
65038;DHT22;51605;47.040;15.294;2024-02-26T03:50:30;20.60;52.00
65038;DHT22;51605;47.040;15.294;2024-02-26T03:52:56;20.60;52.00
65038;DHT22;51605;47.040;15.294;2024-02-26T03:55:23;20.60;52.10
65038;DHT22;51605;47.040;15.294;2024-02-26T03:57:53;20.60;52.10
65038;DHT22;51605;47.040;15.294;2024-02-26T04:00:19;20.60;52.00
65038;DHT22;51605;47.040;15.294;2024-02-26T04:02:47;20.60;52.00
65038;DHT22;51605;47.040;15.294;2024-02-26T04:05:13;20.60;52.00
65038;DHT22;51605;47.040;15.294;2024-02-26T04:07:42;20.60;52.00
65038;DHT22;51605;47.040;15.294;2024-02-26T04:10:09;20.60;52.00
65038;DHT22;51605;47.040;15.294;2024-02-26T04:12:35;20.60;52.00
65038;DHT22;51605;47.040;15.294;2024-02-26T04:15:01;20.60;52.00
65038;DHT22;51605;47.040;15.294;2024-02-26T04:17:26;20.70;51.90
65038;DHT22;51605;47.040;15.294;2024-02-26T04:19:52;20.70;52.00
65038;DHT22;51605;47.040;15.294;2024-02-26T04:22:17;20.60;52.00
65038;DHT22;51605;47.040;15.294;2024-02-26T04:24:43;20.60;52.00
65038;DHT22;51605;47.040;15.294;2024-02-26T04:27:09;20.60;52.00
65038;DHT22;51605;47.040;15.294;2024-02-26T04:29:34;20.60;52.00
65038;DHT22;51605;47.040;15.294;2024-02-26T04:32:00;20.60;52.00
65038;DHT22;51605;47.040;15.294;2024-02-26T04:34:25;20.60;52.00
65038;DHT22;51605;47.040;15.294;2024-02-26T04:36:51;20.60;52.00
65038;DHT22;51605;47.040;15.294;2024-02-26T04:39:17;20.60;52.00
65038;DHT22;51605;47.040;15.294;2024-02-26T04:41:42;20.60;52.00
65038;DHT22;51605;47.040;15.294;2024-02-26T04:44:08;20.60;52.10
65038;DHT22;51605;47.040;15.294;2024-02-26T04:46:33;20.60;52.10
65038;DHT22;51605;47.040;15.294;2024-02-26T04:49:00;20.60;52.10
65038;DHT22;51605;47.040;15.294;2024-02-26T04:51:25;20.60;52.00
65038;DHT22;51605;47.040;15.294;2024-02-26T04:53:51;20.60;52.00
65038;DHT22;51605;47.040;15.294;2024-02-26T04:56:20;20.60;52.10
65038;DHT22;51605;47.040;15.294;2024-02-26T04:58:46;20.60;52.10
65038;DHT22;51605;47.040;15.294;2024-02-26T05:01:11;20.60;52.00
65038;DHT22;51605;47.040;15.294;2024-02-26T05:03:37;20.60;52.50
65038;DHT22;51605;47.040;15.294;2024-02-26T05:06:04;20.60;52.80
65038;DHT22;51605;47.040;15.294;2024-02-26T05:08:30;20.60;52.90
65038;DHT22;51605;47.040;15.294;2024-02-26T05:10:56;20.60;53.00
65038;DHT22;51605;47.040;15.294;2024-02-26T05:13:22;20.60;53.00
65038;DHT22;51605;47.040;15.294;2024-02-26T05:15:48;20.60;53.20
65038;DHT22;51605;47.040;15.294;2024-02-26T05:18:15;20.60;53.30
65038;DHT22;51605;47.040;15.294;2024-02-26T05:20:41;20.60;53.00
65038;DHT22;51605;47.040;15.294;2024-02-26T05:23:06;20.70;53.20
65038;DHT22;51605;47.040;15.294;2024-02-26T05:25:32;20.60;53.00
65038;DHT22;51605;47.040;15.294;2024-02-26T05:27:58;20.60;52.70
65038;DHT22;51605;47.040;15.294;2024-02-26T05:30:23;20.70;52.70
65038;DHT22;51605;47.040;15.294;2024-02-26T05:32:49;20.70;52.50
65038;DHT22;51605;47.040;15.294;2024-02-26T05:35:14;20.70;52.40
65038;DHT22;51605;47.040;15.294;2024-02-26T05:37:40;20.70;52.40
65038;DHT22;51605;47.040;15.294;2024-02-26T05:40:06;20.70;52.40
65038;DHT22;51605;47.040;15.294;2024-02-26T05:42:32;20.70;52.30
65038;DHT22;51605;47.040;15.294;2024-02-26T05:44:58;20.70;52.30
65038;DHT22;51605;47.040;15.294;2024-02-26T05:47:24;20.70;52.30
65038;DHT22;51605;47.040;15.294;2024-02-26T05:49:50;20.70;52.40
65038;DHT22;51605;47.040;15.294;2024-02-26T05:52:15;20.60;52.40
65038;DHT22;51605;47.040;15.294;2024-02-26T05:54:41;20.60;52.50
65038;DHT22;51605;47.040;15.294;2024-02-26T05:57:06;20.60;52.40
65038;DHT22;51605;47.040;15.294;2024-02-26T05:59:32;20.60;52.40
65038;DHT22;51605;47.040;15.294;2024-02-26T06:01:58;20.60;52.40
65038;DHT22;51605;47.040;15.294;2024-02-26T06:04:24;20.60;52.40
65038;DHT22;51605;47.040;15.294;2024-02-26T06:06:49;20.60;52.40
65038;DHT22;51605;47.040;15.294;2024-02-26T06:09:15;20.60;52.30
65038;DHT22;51605;47.040;15.294;2024-02-26T06:11:41;20.60;52.40
65038;DHT22;51605;47.040;15.294;2024-02-26T06:14:06;20.60;52.40
65038;DHT22;51605;47.040;15.294;2024-02-26T06:16:32;20.60;52.30
65038;DHT22;51605;47.040;15.294;2024-02-26T06:18:58;20.60;52.40
65038;DHT22;51605;47.040;15.294;2024-02-26T06:21:25;20.60;52.80
65038;DHT22;51605;47.040;15.294;2024-02-26T06:23:51;20.60;52.40
65038;DHT22;51605;47.040;15.294;2024-02-26T06:26:17;20.60;53.30
65038;DHT22;51605;47.040;15.294;2024-02-26T06:28:42;20.60;52.40
65038;DHT22;51605;47.040;15.294;2024-02-26T06:31:08;20.60;52.50
65038;DHT22;51605;47.040;15.294;2024-02-26T06:33:34;20.60;52.90
65038;DHT22;51605;47.040;15.294;2024-02-26T06:35:59;20.60;52.70
65038;DHT22;51605;47.040;15.294;2024-02-26T06:38:25;20.60;52.30
65038;DHT22;51605;47.040;15.294;2024-02-26T06:40:51;20.60;52.20
65038;DHT22;51605;47.040;15.294;2024-02-26T06:43:16;20.60;52.40
65038;DHT22;51605;47.040;15.294;2024-02-26T06:45:42;20.60;52.40
65038;DHT22;51605;47.040;15.294;2024-02-26T06:48:07;20.60;52.30
65038;DHT22;51605;47.040;15.294;2024-02-26T06:50:33;20.60;52.30
65038;DHT22;51605;47.040;15.294;2024-02-26T06:52:59;20.60;52.40
65038;DHT22;51605;47.040;15.294;2024-02-26T06:55:24;20.70;52.60
65038;DHT22;51605;47.040;15.294;2024-02-26T06:57:50;20.60;52.50
65038;DHT22;51605;47.040;15.294;2024-02-26T07:00:16;20.70;52.60
65038;DHT22;51605;47.040;15.294;2024-02-26T07:02:42;20.70;52.60
65038;DHT22;51605;47.040;15.294;2024-02-26T07:05:08;20.70;52.60
65038;DHT22;51605;47.040;15.294;2024-02-26T07:07:34;20.70;52.60
65038;DHT22;51605;47.040;15.294;2024-02-26T07:10:00;20.70;52.60
65038;DHT22;51605;47.040;15.294;2024-02-26T07:12:29;20.70;52.30
65038;DHT22;51605;47.040;15.294;2024-02-26T07:14:55;20.70;52.30
65038;DHT22;51605;47.040;15.294;2024-02-26T07:17:20;20.70;52.40
65038;DHT22;51605;47.040;15.294;2024-02-26T07:19:46;20.70;52.50
65038;DHT22;51605;47.040;15.294;2024-02-26T07:22:12;20.70;52.60
65038;DHT22;51605;47.040;15.294;2024-02-26T07:24:37;20.70;52.50
65038;DHT22;51605;47.040;15.294;2024-02-26T07:27:03;20.70;52.60
65038;DHT22;51605;47.040;15.294;2024-02-26T07:29:29;20.80;53.20
65038;DHT22;51605;47.040;15.294;2024-02-26T07:31:54;20.80;53.00
65038;DHT22;51605;47.040;15.294;2024-02-26T07:34:20;20.80;53.00
65038;DHT22;51605;47.040;15.294;2024-02-26T07:36:46;20.80;53.00
65038;DHT22;51605;47.040;15.294;2024-02-26T07:39:11;20.80;53.00
65038;DHT22;51605;47.040;15.294;2024-02-26T07:41:37;20.80;53.20
65038;DHT22;51605;47.040;15.294;2024-02-26T07:44:04;20.80;53.00
65038;DHT22;51605;47.040;15.294;2024-02-26T07:46:29;20.80;53.00
65038;DHT22;51605;47.040;15.294;2024-02-26T07:48:55;20.80;52.90
65038;DHT22;51605;47.040;15.294;2024-02-26T07:51:21;20.80;53.90
65038;DHT22;51605;47.040;15.294;2024-02-26T07:53:47;20.80;52.90
65038;DHT22;51605;47.040;15.294;2024-02-26T07:56:13;20.80;53.00
65038;DHT22;51605;47.040;15.294;2024-02-26T07:58:39;20.80;53.10
65038;DHT22;51605;47.040;15.294;2024-02-26T08:01:04;20.70;53.00
65038;DHT22;51605;47.040;15.294;2024-02-26T08:03:30;20.80;53.10
65038;DHT22;51605;47.040;15.294;2024-02-26T08:05:56;20.80;53.10
65038;DHT22;51605;47.040;15.294;2024-02-26T08:08:22;20.80;53.20
65038;DHT22;51605;47.040;15.294;2024-02-26T08:10:47;20.80;52.80
65038;DHT22;51605;47.040;15.294;2024-02-26T08:13:13;20.80;52.70
65038;DHT22;51605;47.040;15.294;2024-02-26T08:15:38;20.80;52.60
65038;DHT22;51605;47.040;15.294;2024-02-26T08:18:04;20.80;52.80
65038;DHT22;51605;47.040;15.294;2024-02-26T08:20:31;20.80;52.90
65038;DHT22;51605;47.040;15.294;2024-02-26T08:22:57;20.80;53.10
65038;DHT22;51605;47.040;15.294;2024-02-26T08:25:23;20.80;53.10
65038;DHT22;51605;47.040;15.294;2024-02-26T08:27:49;20.80;53.20
65038;DHT22;51605;47.040;15.294;2024-02-26T08:30:16;20.80;54.10
65038;DHT22;51605;47.040;15.294;2024-02-26T08:32:42;20.80;53.30
65038;DHT22;51605;47.040;15.294;2024-02-26T08:35:08;20.80;53.20
65038;DHT22;51605;47.040;15.294;2024-02-26T08:37:34;20.90;53.10
65038;DHT22;51605;47.040;15.294;2024-02-26T08:39:59;20.90;53.00
65038;DHT22;51605;47.040;15.294;2024-02-26T08:42:25;20.80;52.70
65038;DHT22;51605;47.040;15.294;2024-02-26T08:44:50;20.80;52.70
65038;DHT22;51605;47.040;15.294;2024-02-26T08:47:16;20.80;52.60
65038;DHT22;51605;47.040;15.294;2024-02-26T08:49:45;20.80;52.60
65038;DHT22;51605;47.040;15.294;2024-02-26T08:52:11;20.80;52.60
65038;DHT22;51605;47.040;15.294;2024-02-26T08:54:36;20.80;53.00
65038;DHT22;51605;47.040;15.294;2024-02-26T08:57:03;20.80;53.00
65038;DHT22;51605;47.040;15.294;2024-02-26T08:59:29;20.80;53.10
65038;DHT22;51605;47.040;15.294;2024-02-26T09:01:54;20.80;53.30
65038;DHT22;51605;47.040;15.294;2024-02-26T09:04:20;20.80;53.20
65038;DHT22;51605;47.040;15.294;2024-02-26T09:06:46;20.80;53.20
65038;DHT22;51605;47.040;15.294;2024-02-26T09:09:12;20.80;53.20
65038;DHT22;51605;47.040;15.294;2024-02-26T09:11:38;20.80;53.20
65038;DHT22;51605;47.040;15.294;2024-02-26T09:14:03;20.80;53.30
65038;DHT22;51605;47.040;15.294;2024-02-26T09:16:30;20.80;53.50
65038;DHT22;51605;47.040;15.294;2024-02-26T09:18:56;20.80;53.50
65038;DHT22;51605;47.040;15.294;2024-02-26T09:21:22;20.80;53.60
65038;DHT22;51605;47.040;15.294;2024-02-26T09:23:52;20.80;53.40
65038;DHT22;51605;47.040;15.294;2024-02-26T09:26:18;20.80;53.50
65038;DHT22;51605;47.040;15.294;2024-02-26T09:28:44;20.90;53.50
65038;DHT22;51605;47.040;15.294;2024-02-26T09:31:10;20.80;53.40
65038;DHT22;51605;47.040;15.294;2024-02-26T09:33:36;20.90;53.50
65038;DHT22;51605;47.040;15.294;2024-02-26T09:36:03;20.90;53.50
65038;DHT22;51605;47.040;15.294;2024-02-26T09:38:29;20.90;53.30
65038;DHT22;51605;47.040;15.294;2024-02-26T09:40:57;20.90;53.10
65038;DHT22;51605;47.040;15.294;2024-02-26T09:43:23;20.80;53.10
65038;DHT22;51605;47.040;15.294;2024-02-26T09:45:53;20.80;53.00
65038;DHT22;51605;47.040;15.294;2024-02-26T09:48:19;20.80;52.90
65038;DHT22;51605;47.040;15.294;2024-02-26T09:50:45;20.80;52.80
65038;DHT22;51605;47.040;15.294;2024-02-26T09:53:12;20.80;53.30
65038;DHT22;51605;47.040;15.294;2024-02-26T09:55:39;20.90;53.20
65038;DHT22;51605;47.040;15.294;2024-02-26T09:58:05;20.80;54.20
65038;DHT22;51605;47.040;15.294;2024-02-26T10:00:32;20.80;53.20
65038;DHT22;51605;47.040;15.294;2024-02-26T10:03:10;20.80;53.20
65038;DHT22;51605;47.040;15.294;2024-02-26T10:05:37;20.80;53.20
65038;DHT22;51605;47.040;15.294;2024-02-26T10:08:04;20.90;53.30
65038;DHT22;51605;47.040;15.294;2024-02-26T10:10:30;20.90;53.30
65038;DHT22;51605;47.040;15.294;2024-02-26T10:12:59;20.90;53.30
65038;DHT22;51605;47.040;15.294;2024-02-26T10:15:25;20.90;54.30
65038;DHT22;51605;47.040;15.294;2024-02-26T10:17:51;20.90;53.40
65038;DHT22;51605;47.040;15.294;2024-02-26T10:20:18;20.90;53.40
65038;DHT22;51605;47.040;15.294;2024-02-26T10:22:47;20.90;53.50
65038;DHT22;51605;47.040;15.294;2024-02-26T10:25:13;20.90;53.50
65038;DHT22;51605;47.040;15.294;2024-02-26T10:27:41;20.90;53.60
65038;DHT22;51605;47.040;15.294;2024-02-26T10:30:19;20.90;53.50
65038;DHT22;51605;47.040;15.294;2024-02-26T10:32:46;20.90;53.70
65038;DHT22;51605;47.040;15.294;2024-02-26T10:35:13;20.90;53.60
65038;DHT22;51605;47.040;15.294;2024-02-26T10:37:40;20.90;53.70
65038;DHT22;51605;47.040;15.294;2024-02-26T10:40:13;20.90;53.60
65038;DHT22;51605;47.040;15.294;2024-02-26T10:42:39;20.90;53.50
65038;DHT22;51605;47.040;15.294;2024-02-26T10:45:06;20.90;53.60
65038;DHT22;51605;47.040;15.294;2024-02-26T10:47:32;20.90;53.50
65038;DHT22;51605;47.040;15.294;2024-02-26T10:49:59;20.90;53.50
65038;DHT22;51605;47.040;15.294;2024-02-26T10:52:27;20.90;53.40
65038;DHT22;51605;47.040;15.294;2024-02-26T10:54:56;20.90;53.60
65038;DHT22;51605;47.040;15.294;2024-02-26T10:57:24;20.90;53.30
65038;DHT22;51605;47.040;15.294;2024-02-26T10:59:51;20.90;53.40
65038;DHT22;51605;47.040;15.294;2024-02-26T11:02:17;20.90;53.40
65038;DHT22;51605;47.040;15.294;2024-02-26T11:04:44;20.90;54.30
65038;DHT22;51605;47.040;15.294;2024-02-26T11:07:11;20.90;53.50
65038;DHT22;51605;47.040;15.294;2024-02-26T11:09:37;20.90;53.50
65038;DHT22;51605;47.040;15.294;2024-02-26T11:12:10;20.90;53.50
65038;DHT22;51605;47.040;15.294;2024-02-26T11:14:40;20.90;53.60
65038;DHT22;51605;47.040;15.294;2024-02-26T11:17:07;20.90;53.60
65038;DHT22;51605;47.040;15.294;2024-02-26T11:19:35;20.90;53.60
65038;DHT22;51605;47.040;15.294;2024-02-26T11:22:01;20.90;54.60
65038;DHT22;51605;47.040;15.294;2024-02-26T11:24:27;20.90;53.70
65038;DHT22;51605;47.040;15.294;2024-02-26T11:26:55;20.90;53.70
65038;DHT22;51605;47.040;15.294;2024-02-26T11:29:31;20.90;53.70
65038;DHT22;51605;47.040;15.294;2024-02-26T11:32:00;20.90;53.70
65038;DHT22;51605;47.040;15.294;2024-02-26T11:34:26;20.90;53.60
65038;DHT22;51605;47.040;15.294;2024-02-26T11:36:52;20.90;53.80
65038;DHT22;51605;47.040;15.294;2024-02-26T11:39:18;20.90;53.50
65038;DHT22;51605;47.040;15.294;2024-02-26T11:41:43;20.90;53.40
65038;DHT22;51605;47.040;15.294;2024-02-26T11:44:09;20.90;53.20
65038;DHT22;51605;47.040;15.294;2024-02-26T11:46:42;20.90;53.20
65038;DHT22;51605;47.040;15.294;2024-02-26T11:51:54;20.90;53.00
65038;DHT22;51605;47.040;15.294;2024-02-26T11:54:48;20.90;52.90
65038;DHT22;51605;47.040;15.294;2024-02-26T11:57:37;20.90;52.90
65038;DHT22;51605;47.040;15.294;2024-02-26T12:02:38;20.90;53.40
65038;DHT22;51605;47.040;15.294;2024-02-26T12:05:09;20.80;53.30
65038;DHT22;51605;47.040;15.294;2024-02-26T12:07:40;20.90;53.40
65038;DHT22;51605;47.040;15.294;2024-02-26T12:10:28;20.90;53.40
65038;DHT22;51605;47.040;15.294;2024-02-26T12:13:00;20.90;53.50
65038;DHT22;51605;47.040;15.294;2024-02-26T12:15:31;20.90;53.40
65038;DHT22;51605;47.040;15.294;2024-02-26T12:17:59;20.90;53.50
65038;DHT22;51605;47.040;15.294;2024-02-26T12:20:25;20.90;53.50
65038;DHT22;51605;47.040;15.294;2024-02-26T12:22:52;20.90;53.50
65038;DHT22;51605;47.040;15.294;2024-02-26T12:25:24;20.90;53.70
65038;DHT22;51605;47.040;15.294;2024-02-26T12:27:50;20.90;53.80
65038;DHT22;51605;47.040;15.294;2024-02-26T12:30:16;20.90;53.60
65038;DHT22;51605;47.040;15.294;2024-02-26T12:32:42;20.90;53.40
65038;DHT22;51605;47.040;15.294;2024-02-26T12:35:08;20.90;53.20
65038;DHT22;51605;47.040;15.294;2024-02-26T12:37:34;20.90;53.20
65038;DHT22;51605;47.040;15.294;2024-02-26T12:40:04;20.90;53.20
65038;DHT22;51605;47.040;15.294;2024-02-26T12:42:32;20.90;53.10
65038;DHT22;51605;47.040;15.294;2024-02-26T12:45:05;20.90;53.00
65038;DHT22;51605;47.040;15.294;2024-02-26T12:47:38;20.90;53.00
65038;DHT22;51605;47.040;15.294;2024-02-26T12:50:05;20.90;53.00
65038;DHT22;51605;47.040;15.294;2024-02-26T12:52:32;20.90;53.30
65038;DHT22;51605;47.040;15.294;2024-02-26T12:54:59;20.90;53.40
65038;DHT22;51605;47.040;15.294;2024-02-26T12:57:24;20.90;53.60
65038;DHT22;51605;47.040;15.294;2024-02-26T12:59:51;20.80;53.80
65038;DHT22;51605;47.040;15.294;2024-02-26T13:02:16;20.90;53.70
65038;DHT22;51605;47.040;15.294;2024-02-26T13:04:42;20.90;53.90
65038;DHT22;51605;47.040;15.294;2024-02-26T13:07:09;20.90;53.90
65038;DHT22;51605;47.040;15.294;2024-02-26T13:09:35;20.90;53.90
65038;DHT22;51605;47.040;15.294;2024-02-26T13:12:04;20.90;53.90
65038;DHT22;51605;47.040;15.294;2024-02-26T13:14:30;20.90;53.90
65038;DHT22;51605;47.040;15.294;2024-02-26T13:17:00;20.90;53.90
65038;DHT22;51605;47.040;15.294;2024-02-26T13:19:26;21.00;53.90
65038;DHT22;51605;47.040;15.294;2024-02-26T13:21:53;21.00;54.00
65038;DHT22;51605;47.040;15.294;2024-02-26T13:24:22;21.00;54.00
65038;DHT22;51605;47.040;15.294;2024-02-26T13:26:54;21.00;54.00
65038;DHT22;51605;47.040;15.294;2024-02-26T13:29:20;21.00;54.00
65038;DHT22;51605;47.040;15.294;2024-02-26T13:31:46;21.00;54.00
65038;DHT22;51605;47.040;15.294;2024-02-26T13:34:24;21.00;54.10
65038;DHT22;51605;47.040;15.294;2024-02-26T13:36:51;21.00;54.20
65038;DHT22;51605;47.040;15.294;2024-02-26T13:39:27;21.00;54.20
65038;DHT22;51605;47.040;15.294;2024-02-26T13:41:54;21.00;54.20
65038;DHT22;51605;47.040;15.294;2024-02-26T13:44:20;21.00;54.30
65038;DHT22;51605;47.040;15.294;2024-02-26T13:46:49;20.90;54.20
65038;DHT22;51605;47.040;15.294;2024-02-26T13:49:15;21.00;54.30
65038;DHT22;51605;47.040;15.294;2024-02-26T13:51:40;21.00;54.50
65038;DHT22;51605;47.040;15.294;2024-02-26T13:54:06;21.00;54.40
65038;DHT22;51605;47.040;15.294;2024-02-26T13:56:33;21.00;54.40
65038;DHT22;51605;47.040;15.294;2024-02-26T13:58:59;20.90;53.90
65038;DHT22;51605;47.040;15.294;2024-02-26T14:01:25;20.90;53.60
65038;DHT22;51605;47.040;15.294;2024-02-26T14:03:51;20.90;53.40
65038;DHT22;51605;47.040;15.294;2024-02-26T14:06:20;20.90;53.40
65038;DHT22;51605;47.040;15.294;2024-02-26T14:08:46;20.90;53.30
65038;DHT22;51605;47.040;15.294;2024-02-26T14:11:12;20.90;53.30
65038;DHT22;51605;47.040;15.294;2024-02-26T14:13:37;20.90;53.30
65038;DHT22;51605;47.040;15.294;2024-02-26T14:16:03;20.90;53.20
65038;DHT22;51605;47.040;15.294;2024-02-26T14:18:29;20.90;53.20
65038;DHT22;51605;47.040;15.294;2024-02-26T14:20:54;20.90;53.20
65038;DHT22;51605;47.040;15.294;2024-02-26T14:23:20;20.90;53.20
65038;DHT22;51605;47.040;15.294;2024-02-26T14:25:46;20.80;53.10
65038;DHT22;51605;47.040;15.294;2024-02-26T14:28:11;20.80;53.20
65038;DHT22;51605;47.040;15.294;2024-02-26T14:30:37;20.80;53.10
65038;DHT22;51605;47.040;15.294;2024-02-26T14:33:03;20.80;53.10
65038;DHT22;51605;47.040;15.294;2024-02-26T14:35:28;20.80;53.00
65038;DHT22;51605;47.040;15.294;2024-02-26T14:37:54;20.80;53.00
65038;DHT22;51605;47.040;15.294;2024-02-26T14:40:20;20.80;53.00
65038;DHT22;51605;47.040;15.294;2024-02-26T14:42:46;20.80;53.00
65038;DHT22;51605;47.040;15.294;2024-02-26T14:45:12;20.80;53.00
65038;DHT22;51605;47.040;15.294;2024-02-26T14:47:38;20.80;53.20
65038;DHT22;51605;47.040;15.294;2024-02-26T14:50:04;20.80;53.30
65038;DHT22;51605;47.040;15.294;2024-02-26T14:52:30;20.80;53.20
65038;DHT22;51605;47.040;15.294;2024-02-26T14:54:56;20.80;53.20
65038;DHT22;51605;47.040;15.294;2024-02-26T14:57:26;20.80;53.10
65038;DHT22;51605;47.040;15.294;2024-02-26T14:59:51;20.80;53.10
65038;DHT22;51605;47.040;15.294;2024-02-26T15:02:17;20.80;53.10
65038;DHT22;51605;47.040;15.294;2024-02-26T15:04:43;20.80;53.00
65038;DHT22;51605;47.040;15.294;2024-02-26T15:07:09;20.80;53.10
65038;DHT22;51605;47.040;15.294;2024-02-26T15:09:37;20.80;53.00
65038;DHT22;51605;47.040;15.294;2024-02-26T15:12:03;20.80;53.00
65038;DHT22;51605;47.040;15.294;2024-02-26T15:14:32;20.80;53.00
65038;DHT22;51605;47.040;15.294;2024-02-26T15:16:57;20.80;53.00